Time;durP1;ratioP1;P1;durP2;ratioP2;P2;SDS_P1;SDS_P2;PMS_P1;PMS_P2;Temp;Humidity;BMP_temperature;BMP_pressure;BME280_temperature;BME280_humidity;BME280_pressure;Samples;Min_cycle;Max_cycle;Signal;HPM_P1;HPM_P2
2023/12/28 00:00:28;;;;;;;3.10;1.27;;;9.50;99.90;;;;;;5054806;28;20043;-53
2023/12/28 00:02:53;;;;;;;1.80;1.00;;;9.60;99.90;;;;;;5054780;28;20035;-53
2023/12/28 00:05:19;;;;;;;3.50;1.10;;;9.60;99.90;;;;;;5054618;28;20112;-56
2023/12/28 00:07:44;;;;;;;2.27;1.20;;;9.60;99.90;;;;;;5054585;28;20071;-54
2023/12/28 00:10:10;;;;;;;3.40;1.30;;;9.60;99.90;;;;;;5054584;28;20446;-54
2023/12/28 00:12:36;;;;;;;5.37;1.50;;;9.60;99.90;;;;;;5054897;28;20033;-54
2023/12/28 00:15:02;;;;;;;9.63;4.13;;;9.70;99.90;;;;;;5054626;28;20040;-55
2023/12/28 00:17:27;;;;;;;2.87;1.50;;;9.70;99.90;;;;;;5054553;28;20115;-55
2023/12/28 00:19:53;;;;;;;3.90;1.50;;;9.70;99.90;;;;;;5054372;28;20448;-52
2023/12/28 00:22:18;;;;;;;2.10;1.00;;;9.80;99.90;;;;;;5054486;28;20033;-51
2023/12/28 00:24:44;;;;;;;5.50;1.10;;;9.70;99.90;;;;;;5054545;28;20466;-53
2023/12/28 00:27:10;;;;;;;2.27;1.10;;;9.70;99.90;;;;;;5054261;28;20029;-51
2023/12/28 00:29:38;;;;;;;2.03;1.00;;;9.70;99.90;;;;;;5054009;28;20478;-54
2023/12/28 00:32:05;;;;;;;2.10;0.90;;;9.70;99.90;;;;;;5036348;28;20061;-51
2023/12/28 00:34:31;;;;;;;5.40;0.97;;;9.90;99.90;;;;;;5036308;28;20435;-54
2023/12/28 00:36:56;;;;;;;2.73;1.10;;;9.80;99.90;;;;;;5036352;28;20040;-53
2023/12/28 00:39:22;;;;;;;1.90;0.90;;;9.80;99.90;;;;;;5036144;28;20291;-52
2023/12/28 00:41:48;;;;;;;2.63;1.00;;;9.80;99.90;;;;;;5054219;28;20163;-53
2023/12/28 00:44:14;;;;;;;1.53;0.90;;;9.80;99.90;;;;;;5036061;28;20561;-52
2023/12/28 00:46:39;;;;;;;1.93;1.13;;;9.90;99.90;;;;;;5053934;28;20029;-54
2023/12/28 00:49:05;;;;;;;2.47;1.37;;;9.90;99.90;;;;;;5053749;28;20436;-50
2023/12/28 00:51:33;;;;;;;3.27;1.03;;;9.90;99.90;;;;;;5053794;28;20021;-52
2023/12/28 00:53:59;;;;;;;1.83;1.00;;;9.90;99.90;;;;;;5036007;28;20102;-52
2023/12/28 00:56:24;;;;;;;2.27;1.10;;;9.90;99.90;;;;;;5053920;28;20036;-55
2023/12/28 00:58:51;;;;;;;3.57;1.27;;;9.90;99.90;;;;;;5053598;28;20060;-54
2023/12/28 01:01:18;;;;;;;2.70;1.20;;;10.00;99.90;;;;;;5053779;28;20107;-51
2023/12/28 01:03:43;;;;;;;2.17;1.03;;;10.00;99.90;;;;;;5019444;28;20111;-50
2023/12/28 01:06:09;;;;;;;2.10;1.10;;;9.90;99.90;;;;;;5053584;28;20032;-54
2023/12/28 01:08:35;;;;;;;2.80;1.20;;;10.00;99.90;;;;;;5053385;28;20032;-55
2023/12/28 01:11:01;;;;;;;2.10;0.90;;;10.00;99.90;;;;;;5053508;28;20402;-54
2023/12/28 01:13:28;;;;;;;2.27;1.03;;;10.00;99.90;;;;;;5035807;28;20387;-54
2023/12/28 01:15:54;;;;;;;2.50;1.17;;;10.00;99.90;;;;;;5053593;28;20080;-53
2023/12/28 01:18:19;;;;;;;2.80;1.10;;;10.00;99.90;;;;;;5053287;28;20482;-53
2023/12/28 01:20:45;;;;;;;3.27;1.30;;;10.00;99.90;;;;;;5035426;28;20025;-55
2023/12/28 01:23:11;;;;;;;1.93;0.93;;;10.00;99.90;;;;;;5035542;28;20481;-54
2023/12/28 01:25:37;;;;;;;2.13;1.07;;;10.00;99.90;;;;;;5035378;28;20036;-54
2023/12/28 01:28:03;;;;;;;2.57;1.30;;;10.00;99.90;;;;;;5052880;28;20036;-54
2023/12/28 01:30:28;;;;;;;4.80;1.23;;;10.00;99.90;;;;;;5035201;28;20070;-55
2023/12/28 01:32:54;;;;;;;3.30;1.17;;;9.90;99.90;;;;;;5035198;28;20082;-51
2023/12/28 01:35:20;;;;;;;3.03;1.30;;;10.00;99.90;;;;;;5035201;28;20028;-53
2023/12/28 01:37:45;;;;;;;3.10;1.13;;;9.90;99.90;;;;;;5035186;28;20032;-54
2023/12/28 01:40:11;;;;;;;1.80;1.00;;;9.90;99.90;;;;;;5034959;28;20485;-55
2023/12/28 01:42:37;;;;;;;1.93;1.23;;;9.90;99.90;;;;;;5034801;28;20060;-53
2023/12/28 01:45:03;;;;;;;1.63;1.00;;;9.90;99.90;;;;;;5035210;28;20043;-55
2023/12/28 01:47:30;;;;;;;2.40;1.20;;;9.90;99.90;;;;;;5035086;28;20076;-55
2023/12/28 01:49:57;;;;;;;3.03;1.30;;;9.90;99.90;;;;;;5034687;28;20057;-56
2023/12/28 01:52:23;;;;;;;3.13;1.10;;;9.80;99.90;;;;;;5035080;28;20542;-55
2023/12/28 01:54:50;;;;;;;2.67;0.93;;;9.90;99.90;;;;;;5052908;28;20481;-53
2023/12/28 01:57:17;;;;;;;2.20;1.07;;;9.90;99.90;;;;;;5034618;28;20029;-53
2023/12/28 01:59:43;;;;;;;2.50;1.10;;;9.90;99.90;;;;;;5034224;28;20029;-53
2023/12/28 02:02:09;;;;;;;2.50;1.23;;;10.00;99.90;;;;;;5034686;28;20036;-54
2023/12/28 02:04:35;;;;;;;2.20;1.10;;;10.00;99.90;;;;;;5034809;28;20381;-51
2023/12/28 02:07:01;;;;;;;2.07;1.00;;;10.00;99.90;;;;;;5034658;28;20087;-53
2023/12/28 02:09:27;;;;;;;2.13;1.13;;;10.00;99.90;;;;;;5034320;28;20025;-54
2023/12/28 02:11:53;;;;;;;1.93;1.03;;;9.90;99.90;;;;;;5034574;28;20030;-52
2023/12/28 02:14:21;;;;;;;2.73;1.20;;;9.90;99.90;;;;;;5034522;28;20029;-55
2023/12/28 02:17:03;;;;;;;2.60;1.07;;;10.00;99.90;;;;;;5034457;28;20539;-54
2023/12/28 02:19:41;;;;;;;3.90;1.33;;;10.00;99.90;;;;;;5034203;28;20033;-55
2023/12/28 02:22:09;;;;;;;3.57;0.90;;;10.00;99.90;;;;;;5034448;28;20040;-55
2023/12/28 02:25:06;;;;;;;2.40;1.33;;;10.00;99.90;;;;;;5034428;28;20068;-55
2023/12/28 02:27:37;;;;;;;3.47;1.40;;;10.00;99.90;;;;;;5034143;28;20059;-52
2023/12/28 02:30:06;;;;;;;2.07;1.00;;;10.00;99.90;;;;;;5052146;28;20112;-52
2023/12/28 02:32:53;;;;;;;3.50;1.10;;;10.00;99.90;;;;;;5052024;28;20393;-54
2023/12/28 02:35:38;;;;;;;3.77;1.27;;;10.00;99.90;;;;;;5052153;28;20045;-55
2023/12/28 02:38:11;;;;;;;2.50;1.20;;;10.00;99.90;;;;;;5051910;28;20033;-55
2023/12/28 02:40:40;;;;;;;4.47;1.30;;;10.00;99.90;;;;;;5034113;28;20255;-53
2023/12/28 02:43:07;;;;;;;3.20;1.13;;;10.00;99.90;;;;;;5033968;28;20082;-53
2023/12/28 02:45:33;;;;;;;2.10;1.17;;;10.10;99.90;;;;;;5051958;28;20095;-49
2023/12/28 02:47:58;;;;;;;2.63;1.10;;;10.00;99.90;;;;;;5033937;28;20723;-54
2023/12/28 02:50:24;;;;;;;3.27;1.10;;;10.00;99.90;;;;;;5051712;28;20032;-51
2023/12/28 02:52:50;;;;;;;2.87;1.40;;;10.00;99.90;;;;;;5033983;28;20070;-52
2023/12/28 02:55:15;;;;;;;2.70;1.20;;;9.90;99.90;;;;;;5051824;28;20048;-54
2023/12/28 02:57:43;;;;;;;2.23;1.10;;;10.00;99.90;;;;;;5051672;28;20037;-55
2023/12/28 03:00:09;;;;;;;2.63;1.03;;;10.00;99.90;;;;;;5051599;28;20036;-55
2023/12/28 03:02:38;;;;;;;2.43;1.00;;;10.00;99.90;;;;;;5051609;28;20090;-51
2023/12/28 03:05:05;;;;;;;3.00;1.07;;;10.00;99.90;;;;;;5051702;28;20074;-55
2023/12/28 03:07:32;;;;;;;2.13;1.07;;;10.00;99.90;;;;;;5033686;28;20040;-54
2023/12/28 03:09:58;;;;;;;2.57;1.20;;;9.90;99.90;;;;;;5052132;28;20075;-55
2023/12/28 03:12:23;;;;;;;2.83;1.13;;;10.00;99.90;;;;;;5055737;28;20063;-55
2023/12/28 03:14:49;;;;;;;2.33;0.90;;;9.90;99.90;;;;;;5037879;28;20033;-51
2023/12/28 03:17:15;;;;;;;3.50;1.17;;;9.90;99.90;;;;;;5056141;28;20418;-55
2023/12/28 03:19:41;;;;;;;1.70;1.00;;;10.00;99.90;;;;;;5021072;28;20091;-53
2023/12/28 03:22:06;;;;;;;2.97;1.20;;;10.00;99.90;;;;;;5037634;28;20211;-55
2023/12/28 03:24:32;;;;;;;3.17;1.23;;;10.00;99.90;;;;;;5037644;28;20389;-54
2023/12/28 03:26:57;;;;;;;3.67;1.33;;;9.90;99.90;;;;;;5037672;28;20436;-54
2023/12/28 03:29:24;;;;;;;1.70;1.00;;;10.00;99.90;;;;;;5055355;28;20025;-54
2023/12/28 03:31:49;;;;;;;3.63;1.60;;;10.00;99.90;;;;;;5037596;28;20385;-55
2023/12/28 03:34:15;;;;;;;2.57;1.43;;;10.10;99.90;;;;;;5055450;28;20058;-55
2023/12/28 03:36:41;;;;;;;2.30;1.33;;;10.10;99.90;;;;;;5037550;28;20037;-54
2023/12/28 03:39:08;;;;;;;2.03;1.27;;;10.10;99.90;;;;;;5037434;28;20102;-55
2023/12/28 03:41:34;;;;;;;2.50;1.43;;;10.20;99.90;;;;;;5055191;28;20071;-55
2023/12/28 03:44:00;;;;;;;1.80;1.13;;;10.20;99.90;;;;;;5055575;28;20032;-53
2023/12/28 03:46:26;;;;;;;3.63;1.30;;;10.20;99.90;;;;;;5037261;28;20502;-51
2023/12/28 03:48:53;;;;;;;3.37;1.40;;;10.20;99.90;;;;;;5054980;28;20048;-55
2023/12/28 03:51:18;;;;;;;3.63;1.37;;;10.20;99.90;;;;;;5037182;28;20021;-55
2023/12/28 03:53:44;;;;;;;3.40;1.40;;;10.10;99.90;;;;;;5037129;28;20517;-54
2023/12/28 03:56:24;;;;;;;3.23;1.83;;;10.20;99.90;;;;;;5055082;28;20036;-52
2023/12/28 03:58:50;;;;;;;2.83;1.10;;;10.10;99.90;;;;;;5036846;28;20500;-55
2023/12/28 04:01:21;;;;;;;4.23;1.40;;;10.00;99.90;;;;;;5036950;28;20041;-55
2023/12/28 04:03:48;;;;;;;6.00;1.50;;;10.00;99.90;;;;;;5037142;28;20103;-51
2023/12/28 04:06:14;;;;;;;3.40;1.40;;;10.10;99.90;;;;;;5036890;28;20068;-55
2023/12/28 04:08:41;;;;;;;4.47;1.30;;;10.10;99.90;;;;;;5054537;28;20377;-51
2023/12/28 04:11:08;;;;;;;2.30;1.20;;;10.10;99.90;;;;;;5036720;28;20031;-54
2023/12/28 04:13:35;;;;;;;2.20;1.00;;;10.10;99.90;;;;;;5036719;28;20064;-54
2023/12/28 04:16:01;;;;;;;3.03;1.10;;;10.10;99.90;;;;;;5036794;28;20116;-53
2023/12/28 04:18:26;;;;;;;3.03;1.43;;;10.20;99.90;;;;;;5036585;28;20068;-55
2023/12/28 04:20:52;;;;;;;3.60;1.17;;;10.10;99.90;;;;;;5036079;28;20061;-53
2023/12/28 04:23:18;;;;;;;2.20;0.90;;;10.10;99.90;;;;;;5036650;28;20056;-55
2023/12/28 04:25:43;;;;;;;1.73;1.10;;;10.10;99.90;;;;;;5036588;28;20025;-49
2023/12/28 04:28:09;;;;;;;4.20;1.43;;;10.10;99.90;;;;;;5054186;28;20428;-51
2023/12/28 04:30:35;;;;;;;3.67;1.40;;;10.10;99.90;;;;;;5036427;28;20052;-54
2023/12/28 04:33:02;;;;;;;2.77;1.10;;;10.10;99.90;;;;;;5036427;28;20029;-55
2023/12/28 04:35:27;;;;;;;5.30;1.10;;;10.00;99.90;;;;;;5036420;28;20086;-55
2023/12/28 04:37:53;;;;;;;3.50;1.20;;;10.10;99.90;;;;;;5036220;28;20444;-55
2023/12/28 04:40:19;;;;;;;3.53;1.20;;;10.20;99.90;;;;;;5036254;28;20384;-52
2023/12/28 04:42:44;;;;;;;2.90;1.20;;;10.20;99.90;;;;;;5035974;28;20067;-53
2023/12/28 04:45:10;;;;;;;2.40;1.23;;;10.20;99.90;;;;;;5054167;28;20032;-54
2023/12/28 04:47:36;;;;;;;4.00;1.40;;;10.20;99.90;;;;;;5036026;28;20401;-52
2023/12/28 04:50:03;;;;;;;4.33;1.43;;;10.20;99.90;;;;;;5053820;28;20025;-54
2023/12/28 04:52:29;;;;;;;2.33;1.37;;;10.20;99.90;;;;;;5053864;28;20423;-52
2023/12/28 04:54:54;;;;;;;3.10;1.63;;;10.20;99.90;;;;;;5019631;28;20083;-54
2023/12/28 04:57:20;;;;;;;2.83;1.30;;;10.20;99.90;;;;;;5035860;28;20033;-52
2023/12/28 04:59:47;;;;;;;6.47;1.33;;;10.20;99.90;;;;;;5035855;28;20032;-55
2023/12/28 05:02:13;;;;;;;3.23;1.20;;;10.20;99.90;;;;;;5035931;28;20508;-53
2023/12/28 05:04:38;;;;;;;3.40;1.30;;;10.30;99.90;;;;;;5053844;28;20094;-55
2023/12/28 05:07:04;;;;;;;3.77;1.10;;;10.30;99.90;;;;;;5035734;28;20486;-51
2023/12/28 05:09:31;;;;;;;4.07;1.60;;;10.30;99.90;;;;;;5053373;28;20086;-55
2023/12/28 05:11:56;;;;;;;2.37;1.20;;;10.20;99.90;;;;;;5035785;28;20029;-55
2023/12/28 05:14:22;;;;;;;2.93;1.20;;;10.20;99.90;;;;;;5035854;28;20462;-54
2023/12/28 05:16:48;;;;;;;4.30;1.30;;;10.20;99.90;;;;;;5035573;28;20029;-51
2023/12/28 05:19:14;;;;;;;3.63;1.10;;;10.30;99.90;;;;;;5035465;28;20044;-54
2023/12/28 05:21:40;;;;;;;2.30;1.00;;;10.30;99.90;;;;;;5053305;28;20024;-55
2023/12/28 05:24:05;;;;;;;4.00;1.50;;;10.30;99.90;;;;;;5053329;28;20107;-55
2023/12/28 05:26:31;;;;;;;1.73;1.00;;;10.30;99.90;;;;;;5053136;28;20487;-52
2023/12/28 05:28:57;;;;;;;2.50;1.10;;;10.30;99.90;;;;;;5053041;28;20094;-54
2023/12/28 05:31:22;;;;;;;3.20;1.50;;;10.30;99.90;;;;;;5053316;28;20029;-53
2023/12/28 05:33:48;;;;;;;3.40;1.20;;;10.30;99.90;;;;;;5052270;28;20040;-55
2023/12/28 05:36:13;;;;;;;3.57;0.90;;;10.30;99.90;;;;;;5053200;28;20025;-54
2023/12/28 05:38:39;;;;;;;1.73;0.87;;;10.30;99.90;;;;;;5052900;28;20493;-55
2023/12/28 05:41:05;;;;;;;4.33;0.97;;;10.30;99.90;;;;;;5052957;28;20036;-55
2023/12/28 05:43:30;;;;;;;2.93;1.03;;;10.30;99.90;;;;;;5052912;28;20033;-55
2023/12/28 05:45:56;;;;;;;4.57;1.13;;;10.40;99.90;;;;;;5053149;28;20071;-51
2023/12/28 05:48:22;;;;;;;9.23;1.53;;;10.30;99.90;;;;;;5052690;28;20029;-54
2023/12/28 05:50:47;;;;;;;2.77;1.20;;;10.30;99.90;;;;;;5052703;28;20133;-54
2023/12/28 05:53:14;;;;;;;2.83;0.90;;;10.30;99.90;;;;;;5052610;28;20033;-55
2023/12/28 05:55:43;;;;;;;6.10;1.53;;;10.30;99.90;;;;;;5052629;28;20024;-54
2023/12/28 05:58:09;;;;;;;5.38;1.00;;;10.30;99.90;;;;;;5052520;28;20056;-55
2023/12/28 06:00:36;;;;;;;2.27;1.20;;;10.30;99.90;;;;;;5052573;28;20040;-53
2023/12/28 06:03:02;;;;;;;1.93;0.80;;;10.30;99.90;;;;;;5052639;28;20037;-55
2023/12/28 06:05:28;;;;;;;3.83;1.10;;;10.30;99.90;;;;;;5052896;28;20036;-53
2023/12/28 06:07:54;;;;;;;3.97;1.13;;;10.30;99.90;;;;;;5052139;28;20033;-53
2023/12/28 06:10:20;;;;;;;1.90;0.80;;;10.40;99.90;;;;;;5052352;28;20029;-54
2023/12/28 06:12:45;;;;;;;2.37;1.23;;;10.40;99.90;;;;;;5052350;28;20112;-55
2023/12/28 06:15:11;;;;;;;2.57;1.03;;;10.50;99.90;;;;;;5052472;28;20017;-54
2023/12/28 06:17:37;;;;;;;3.70;1.00;;;10.40;99.90;;;;;;5052305;28;20509;-55
2023/12/28 06:20:03;;;;;;;3.80;1.07;;;10.40;99.90;;;;;;5052068;28;20056;-55
2023/12/28 06:22:28;;;;;;;1.90;1.30;;;10.30;99.90;;;;;;5052156;28;20397;-54
2023/12/28 06:24:57;;;;;;;8.40;2.83;;;10.40;99.90;;;;;;5052099;28;20029;-55
2023/12/28 06:27:23;;;;;;;8.43;2.07;;;10.40;99.90;;;;;;5052081;28;20093;-55
2023/12/28 06:29:49;;;;;;;3.80;1.07;;;10.40;99.90;;;;;;5051866;28;20438;-54
2023/12/28 06:32:15;;;;;;;2.47;0.90;;;10.40;99.90;;;;;;5052043;28;20024;-55
2023/12/28 06:34:40;;;;;;;3.50;1.10;;;10.40;99.90;;;;;;5052163;28;20029;-55
2023/12/28 06:37:06;;;;;;;3.53;0.80;;;10.40;99.90;;;;;;5051945;28;20056;-55
2023/12/28 06:39:31;;;;;;;4.13;1.30;;;10.40;99.90;;;;;;5051636;28;20440;-49
2023/12/28 06:41:57;;;;;;;2.97;0.90;;;10.50;99.90;;;;;;5051897;28;20036;-54
2023/12/28 06:44:23;;;;;;;4.80;1.17;;;10.40;99.90;;;;;;5051694;28;20044;-55
2023/12/28 06:46:48;;;;;;;2.77;1.30;;;10.40;99.90;;;;;;5051782;28;20075;-54
2023/12/28 06:49:14;;;;;;;2.23;1.00;;;10.30;99.90;;;;;;5051681;28;20087;-53
2023/12/28 06:51:39;;;;;;;3.20;1.10;;;10.30;99.90;;;;;;5052185;28;20060;-53
2023/12/28 06:54:05;;;;;;;3.00;1.30;;;10.40;99.90;;;;;;5051714;28;20104;-54
2023/12/28 06:56:31;;;;;;;4.20;1.17;;;10.40;99.90;;;;;;5052201;28;20537;-55
2023/12/28 06:58:56;;;;;;;4.00;1.00;;;10.40;99.90;;;;;;5051489;28;20477;-54
2023/12/28 07:01:22;;;;;;;3.50;0.90;;;10.30;99.90;;;;;;5051552;28;20033;-55
2023/12/28 07:03:47;;;;;;;4.53;1.30;;;10.40;99.90;;;;;;5051657;28;20033;-55
2023/12/28 07:06:16;;;;;;;3.80;1.13;;;10.40;99.90;;;;;;5051623;28;20055;-51
2023/12/28 07:08:41;;;;;;;5.88;1.40;;;10.30;99.90;;;;;;5051340;28;20049;-55
2023/12/28 07:11:10;;;;;;;5.73;1.80;;;10.40;99.90;;;;;;5051589;28;20055;-54
2023/12/28 07:13:36;;;;;;;2.42;1.30;;;10.40;99.90;;;;;;5051681;28;20047;-55
2023/12/28 07:16:01;;;;;;;2.47;1.10;;;10.40;99.90;;;;;;5051543;28;20029;-55
2023/12/28 07:18:27;;;;;;;5.23;1.17;;;10.40;99.90;;;;;;5051862;28;20040;-54
2023/12/28 07:20:52;;;;;;;3.77;1.20;;;10.40;99.90;;;;;;5051291;28;20029;-55
2023/12/28 07:23:18;;;;;;;3.20;0.90;;;10.40;99.90;;;;;;5051434;28;20031;-54
2023/12/28 07:25:44;;;;;;;3.13;1.10;;;10.40;99.90;;;;;;5051569;28;20051;-54
2023/12/28 07:28:09;;;;;;;3.90;0.90;;;10.40;99.90;;;;;;5051221;28;20036;-55
2023/12/28 07:30:36;;;;;;;6.60;1.57;;;10.40;99.90;;;;;;5051385;28;20120;-55
2023/12/28 07:33:02;;;;;;;6.30;1.23;;;10.40;99.90;;;;;;5051350;28;20033;-52
2023/12/28 07:35:27;;;;;;;3.00;1.13;;;10.50;99.90;;;;;;5051477;28;20036;-52
2023/12/28 07:37:54;;;;;;;2.63;1.37;;;10.50;99.90;;;;;;5051185;28;20036;-54
2023/12/28 07:40:20;;;;;;;3.73;1.07;;;10.50;99.90;;;;;;5051316;28;20029;-55
2023/12/28 07:42:45;;;;;;;2.60;1.17;;;10.50;99.90;;;;;;5051380;28;20424;-53
2023/12/28 07:45:11;;;;;;;3.47;1.20;;;10.50;99.90;;;;;;5051438;28;20504;-54
2023/12/28 07:47:36;;;;;;;2.73;0.87;;;10.60;99.90;;;;;;5051158;28;20029;-51
2023/12/28 07:50:02;;;;;;;6.93;1.77;;;10.60;99.90;;;;;;5051015;28;20482;-55
2023/12/28 07:52:29;;;;;;;3.30;1.27;;;10.60;99.90;;;;;;5051012;28;20112;-54
2023/12/28 07:54:54;;;;;;;6.07;1.30;;;10.60;99.90;;;;;;5051364;28;20108;-55
2023/12/28 07:57:20;;;;;;;4.93;1.43;;;10.60;99.90;;;;;;5054000;28;20501;-54
2023/12/28 07:59:46;;;;;;;5.33;1.43;;;10.60;99.90;;;;;;5054740;28;20389;-54
2023/12/28 08:02:12;;;;;;;3.77;1.00;;;10.60;99.90;;;;;;5054775;28;20090;-54
2023/12/28 08:04:37;;;;;;;4.63;0.90;;;10.50;99.90;;;;;;5054681;28;20045;-51
2023/12/28 08:07:04;;;;;;;4.63;1.10;;;10.60;99.90;;;;;;5054613;28;20037;-54
2023/12/28 08:09:30;;;;;;;6.20;1.37;;;10.60;99.90;;;;;;5054782;28;20039;-55
2023/12/28 08:11:55;;;;;;;5.80;1.30;;;10.60;99.90;;;;;;5054676;28;20029;-50
2023/12/28 08:14:21;;;;;;;4.03;1.13;;;10.70;99.90;;;;;;5054696;28;20021;-55
2023/12/28 08:16:47;;;;;;;4.63;0.87;;;10.70;99.90;;;;;;5054703;28;20056;-55
2023/12/28 08:19:13;;;;;;;4.57;0.90;;;10.70;99.90;;;;;;5054328;28;20029;-53
2023/12/28 08:21:39;;;;;;;6.27;1.40;;;10.70;99.90;;;;;;5054484;28;20040;-53
2023/12/28 08:24:05;;;;;;;5.27;1.20;;;10.60;99.90;;;;;;5054363;28;20033;-53
2023/12/28 08:26:32;;;;;;;4.10;0.90;;;10.60;99.90;;;;;;5054468;28;20037;-53
2023/12/28 08:28:58;;;;;;;4.17;1.10;;;10.60;99.90;;;;;;5054183;28;20021;-54
2023/12/28 08:31:24;;;;;;;6.57;1.33;;;10.70;99.90;;;;;;5054362;28;20540;-55
2023/12/28 08:33:49;;;;;;;5.10;1.10;;;10.70;99.90;;;;;;5054306;28;20148;-55
2023/12/28 08:36:17;;;;;;;4.53;0.90;;;10.70;99.90;;;;;;5054278;28;20111;-55
2023/12/28 08:38:43;;;;;;;2.13;0.90;;;10.70;99.90;;;;;;5054005;28;20064;-55
2023/12/28 08:41:21;;;;;;;6.33;1.00;;;10.70;99.90;;;;;;5054219;28;20121;-54
2023/12/28 08:43:47;;;;;;;5.40;1.13;;;10.70;99.90;;;;;;5054084;28;20405;-55
2023/12/28 08:46:14;;;;;;;3.40;0.87;;;10.70;99.90;;;;;;5054014;28;20130;-51
2023/12/28 08:48:40;;;;;;;2.53;0.83;;;10.80;99.90;;;;;;5053605;28;20478;-52
2023/12/28 08:51:06;;;;;;;6.30;1.10;;;10.70;99.90;;;;;;5053912;28;20083;-55
2023/12/28 08:53:32;;;;;;;3.27;0.90;;;10.70;99.90;;;;;;5053932;28;20033;-51
2023/12/28 08:55:57;;;;;;;6.53;1.27;;;10.80;99.90;;;;;;5053840;28;20032;-53
2023/12/28 08:58:23;;;;;;;1.97;0.93;;;10.80;99.90;;;;;;5053701;28;20470;-55
2023/12/28 09:00:49;;;;;;;7.03;1.60;;;10.80;99.90;;;;;;5053744;28;20033;-55
2023/12/28 09:03:14;;;;;;;3.80;1.17;;;10.70;99.90;;;;;;5053621;28;20112;-53
2023/12/28 09:05:40;;;;;;;5.40;1.13;;;10.80;99.90;;;;;;5053710;28;20389;-52
2023/12/28 09:08:06;;;;;;;7.30;1.20;;;10.80;99.90;;;;;;5053391;28;20072;-55
2023/12/28 09:10:31;;;;;;;5.87;1.40;;;10.80;99.90;;;;;;5053581;28;20112;-55
2023/12/28 09:12:57;;;;;;;6.40;0.97;;;10.80;99.90;;;;;;5053464;28;20111;-53
2023/12/28 09:15:23;;;;;;;4.23;1.20;;;10.80;99.90;;;;;;5053571;28;20029;-53
2023/12/28 09:17:48;;;;;;;7.90;1.10;;;10.80;99.90;;;;;;5053357;28;20037;-54
2023/12/28 09:20:14;;;;;;;7.63;1.23;;;10.80;99.90;;;;;;5053271;28;20068;-54
2023/12/28 09:22:40;;;;;;;7.07;1.00;;;10.80;99.90;;;;;;5053293;28;20078;-53
2023/12/28 09:25:06;;;;;;;5.50;1.23;;;10.90;99.90;;;;;;5053261;28;20033;-52
2023/12/28 09:27:31;;;;;;;4.80;0.90;;;10.90;99.90;;;;;;5053252;28;20036;-51
2023/12/28 09:29:57;;;;;;;6.17;1.30;;;10.90;99.90;;;;;;5053066;28;20047;-55
2023/12/28 09:32:22;;;;;;;5.70;0.90;;;10.90;99.90;;;;;;5053027;28;20025;-53
2023/12/28 09:34:48;;;;;;;3.10;0.90;;;10.90;99.90;;;;;;5053157;28;20028;-54
2023/12/28 09:37:13;;;;;;;5.83;1.30;;;11.00;99.90;;;;;;5053115;28;20083;-51
2023/12/28 09:39:41;;;;;;;5.73;1.40;;;11.00;99.90;;;;;;5052909;28;20033;-54
2023/12/28 09:42:14;;;;;;;5.60;1.87;;;11.00;99.90;;;;;;5053231;28;20387;-53
2023/12/28 09:44:43;;;;;;;6.23;1.17;;;11.00;99.90;;;;;;5052932;28;20048;-54
2023/12/28 09:47:12;;;;;;;4.68;1.10;;;11.10;99.90;;;;;;5052781;28;20052;-53
2023/12/28 09:49:39;;;;;;;4.30;1.20;;;11.20;99.90;;;;;;5052798;28;20474;-55
2023/12/28 09:52:05;;;;;;;7.43;1.60;;;11.10;99.90;;;;;;5052740;28;20032;-54
2023/12/28 09:54:31;;;;;;;5.97;1.10;;;11.00;99.90;;;;;;5052816;28;20029;-53
2023/12/28 09:56:57;;;;;;;4.23;1.30;;;11.00;99.90;;;;;;5052812;28;20033;-55
2023/12/28 09:59:24;;;;;;;4.07;0.90;;;11.10;99.90;;;;;;5052428;28;20401;-54
2023/12/28 10:01:50;;;;;;;6.03;1.50;;;11.10;99.90;;;;;;5052550;28;20040;-53
2023/12/28 10:04:16;;;;;;;5.60;1.27;;;11.10;99.90;;;;;;5034678;28;20033;-55
2023/12/28 10:06:42;;;;;;;4.70;1.30;;;11.20;99.90;;;;;;5052539;28;20036;-54
2023/12/28 10:09:08;;;;;;;6.57;0.87;;;11.10;99.90;;;;;;5052323;28;20086;-54
2023/12/28 10:11:34;;;;;;;4.60;1.13;;;11.20;99.90;;;;;;5052497;28;20120;-54
2023/12/28 10:13:59;;;;;;;3.27;1.00;;;11.20;99.90;;;;;;5052447;28;20029;-53
2023/12/28 10:16:26;;;;;;;3.23;0.90;;;11.30;99.90;;;;;;5052412;28;20529;-55
2023/12/28 10:18:52;;;;;;;4.30;1.40;;;11.30;99.90;;;;;;5051706;28;20032;-54
2023/12/28 10:21:17;;;;;;;4.20;0.80;;;11.30;99.90;;;;;;5052376;28;20097;-54
2023/12/28 10:23:43;;;;;;;6.20;1.57;;;11.30;99.90;;;;;;5052274;28;20493;-54
2023/12/28 10:26:09;;;;;;;5.37;1.33;;;11.30;99.90;;;;;;5052177;28;20037;-55
2023/12/28 10:28:38;;;;;;;7.23;1.17;;;11.20;99.90;;;;;;5051899;28;20025;-57
2023/12/28 10:31:04;;;;;;;9.10;1.67;;;11.20;99.90;;;;;;5052064;28;20029;-53
2023/12/28 10:33:35;;;;;;;6.23;1.10;;;11.20;99.90;;;;;;5052042;28;20036;-53
2023/12/28 10:36:05;;;;;;;6.03;1.43;;;11.30;99.90;;;;;;5052179;28;20086;-54
2023/12/28 10:38:35;;;;;;;6.47;1.13;;;11.30;99.90;;;;;;5052268;28;20067;-54
2023/12/28 10:41:01;;;;;;;4.53;1.30;;;11.30;99.90;;;;;;5051851;28;20100;-49
2023/12/28 10:43:28;;;;;;;7.70;1.47;;;11.30;99.90;;;;;;5051796;28;20037;-55
2023/12/28 10:45:54;;;;;;;7.00;1.23;;;11.30;99.90;;;;;;5051912;28;20024;-55
2023/12/28 10:48:32;;;;;;;3.10;1.17;;;11.30;99.90;;;;;;5051644;28;20057;-55
2023/12/28 10:51:00;;;;;;;6.23;1.03;;;11.30;99.90;;;;;;5051836;28;20086;-54
2023/12/28 10:53:38;;;;;;;5.70;1.30;;;11.30;99.90;;;;;;5051810;28;20028;-55
2023/12/28 10:56:17;;;;;;;5.70;1.30;;;11.40;99.90;;;;;;5051888;28;20108;-51
2023/12/28 10:58:58;;;;;;;5.65;1.02;;;11.40;99.90;;;;;;5051635;28;20021;-55
2023/12/28 11:01:37;;;;;;;4.03;1.00;;;11.40;99.90;;;;;;5035415;28;20103;-54
2023/12/28 11:04:08;;;;;;;8.13;1.48;;;11.40;99.90;;;;;;5051643;28;20028;-55
2023/12/28 11:06:34;;;;;;;6.63;2.33;;;11.40;99.90;;;;;;5051725;28;20041;-54
2023/12/28 11:09:01;;;;;;;5.53;1.53;;;11.60;99.90;;;;;;5051366;28;20025;-52
2023/12/28 11:11:27;;;;;;;5.17;1.17;;;11.60;99.90;;;;;;5051556;28;20079;-51
2023/12/28 11:13:56;;;;;;;5.73;1.30;;;11.70;99.90;;;;;;5051663;28;20028;-55
2023/12/28 11:16:22;;;;;;;5.97;1.35;;;11.70;99.90;;;;;;5033708;28;20029;-55
2023/12/28 11:18:49;;;;;;;7.90;1.45;;;11.80;99.90;;;;;;5051327;28;20040;-50
2023/12/28 11:21:16;;;;;;;3.87;1.13;;;11.90;99.90;;;;;;5033596;28;20086;-55
2023/12/28 11:23:43;;;;;;;4.00;1.07;;;12.00;99.90;;;;;;5051654;28;20076;-52
2023/12/28 11:26:17;;;;;;;6.53;1.47;;;11.90;99.90;;;;;;5051411;28;20029;-53
2023/12/28 11:28:42;;;;;;;6.32;1.58;;;11.90;99.90;;;;;;5051358;28;20159;-55
2023/12/28 11:31:14;;;;;;;7.17;1.10;;;11.90;99.90;;;;;;5052433;28;20108;-51
2023/12/28 11:33:47;;;;;;;4.70;0.85;;;11.90;99.90;;;;;;5055622;28;20600;-53
2023/12/28 11:36:32;;;;;;;11.85;1.55;;;11.80;99.90;;;;;;5055508;28;20478;-52
2023/12/28 11:39:02;;;;;;;5.40;1.23;;;11.70;99.90;;;;;;5055187;28;20060;-53
2023/12/28 11:41:30;;;;;;;5.60;1.10;;;11.70;99.90;;;;;;5055222;28;20386;-53
2023/12/28 11:43:55;;;;;;;5.00;1.40;;;11.70;99.90;;;;;;5055239;28;20065;-52
2023/12/28 11:46:22;;;;;;;5.03;1.10;;;11.80;99.90;;;;;;5055246;28;20126;-53
2023/12/28 11:48:48;;;;;;;5.53;1.10;;;11.90;99.90;;;;;;5055077;28;20393;-54
2023/12/28 11:51:14;;;;;;;4.07;0.98;;;12.00;99.90;;;;;;5055131;28;20029;-56
2023/12/28 11:53:41;;;;;;;7.33;1.00;;;12.00;99.90;;;;;;5055170;28;20473;-54
2023/12/28 11:56:09;;;;;;;5.63;1.30;;;12.10;99.90;;;;;;5055017;28;20057;-55
2023/12/28 11:58:35;;;;;;;8.40;1.10;;;12.00;99.90;;;;;;5054743;28;20036;-55
2023/12/28 12:01:02;;;;;;;4.00;1.10;;;12.00;99.90;;;;;;5054973;28;20029;-54
2023/12/28 12:03:29;;;;;;;6.20;1.73;;;12.00;99.90;;;;;;5054923;28;20076;-52
2023/12/28 12:05:57;;;;;;;3.00;0.98;;;12.00;99.90;;;;;;5054975;28;20104;-55
2023/12/28 12:08:23;;;;;;;7.43;1.20;;;12.10;99.90;;;;;;5054589;28;20041;-55
2023/12/28 12:11:00;;;;;;;5.47;1.30;;;12.20;99.90;;;;;;5054610;28;20385;-55
2023/12/28 12:13:27;;;;;;;5.88;1.20;;;12.30;99.90;;;;;;5054853;28;20393;-54
2023/12/28 12:15:53;;;;;;;5.72;1.33;;;12.20;99.90;;;;;;5054770;28;20028;-54
2023/12/28 12:18:18;;;;;;;8.38;1.65;;;12.20;99.90;;;;;;5054505;28;20041;-55
2023/12/28 12:20:45;;;;;;;9.05;1.52;;;12.20;99.90;;;;;;5054619;28;20036;-54
2023/12/28 12:23:12;;;;;;;5.88;1.10;;;12.20;99.90;;;;;;5054525;28;20061;-53
2023/12/28 12:25:38;;;;;;;11.35;1.35;;;12.30;99.90;;;;;;5054506;28;20037;-53
2023/12/28 12:28:04;;;;;;;5.20;1.33;;;12.30;99.90;;;;;;5054211;28;20039;-54
2023/12/28 12:30:30;;;;;;;8.35;1.38;;;12.30;99.90;;;;;;5054454;28;20032;-55
2023/12/28 12:32:55;;;;;;;9.20;1.30;;;12.30;99.90;;;;;;5054721;28;20445;-55
2023/12/28 12:35:21;;;;;;;5.00;1.08;;;12.30;99.90;;;;;;5054322;28;20079;-55
2023/12/28 12:37:49;;;;;;;6.15;1.10;;;12.30;99.90;;;;;;5054306;28;20402;-55
2023/12/28 12:40:15;;;;;;;5.53;1.23;;;12.30;99.90;;;;;;5054132;28;20037;-55
2023/12/28 12:42:42;;;;;;;5.68;1.20;;;12.30;99.90;;;;;;5053654;28;20115;-53
2023/12/28 12:45:08;;;;;;;3.13;0.98;;;12.50;99.90;;;;;;5054567;28;20047;-54